sim
Sign-in with your pilot id or email,
or register
Callsign
Passwort

Schedule Details

Flight Number: DLH2433
Departure: Gothenburg Landvetter Airport (ESGG) at 05:00
Arrival: Munich Airport (EDDM) at 06:50
Route: Lufthansa Passenger Schedule. Enter filed route here before submitting Pirep.

Weather Information
Getting current METAR information for ESGG 202050Z 21006KT 9999 OVC008 11/10 Q1020
Getting current METAR information for EDDM 202050Z 00000KT CAVOK 11/10 Q1016 NOSIG

Schedule Frequency

Route Map